ESGJ

Jönköping Airport

Jönköping, Sweden
TAF ESGJ 182330Z 1900/1902 15008KT 6000 SCT006 BKN020 PROB40 1900/1902 4000 -SG BR BKN006
Issued Valid From Valid To
Dec-18 @ 23:30 UTC
(51 minutes ago)
Dec-19 @ 00:00 UTC
(21 minutes ago)
Dec-19 @ 02:00 UTC
(in 2 hours)
Dec-19 @ 00:00 to Dec-19 @ 02:00
TAF ESGJ 182330Z 1900/1902 15008KT 6000 SCT006 BKN020
Wind Visibility Clouds
150° at 8 knots 6,003 meters
  • Scattered at 600' AGL
  • Broken at 2,000' AGL
Probable  (Probability 40%) Dec-19 @ 00:00 to Dec-19 @ 02:00
PROB40 1900/1902 4000 -SG BR BKN006
Visibility Clouds Conditions
4,007 meters
  • Broken at 600' AGL
  • Light Snow grains
  • Mist
TAF ESGJ 182330Z 1900/1902 15008KT 6000 SCT006 BKN020 PROB40 1900/1902 4000 -SG BR BKN006
Issued Dec-18 @ 23:30 UTC
(51 minutes ago)
Valid From Dec-19 @ 00:00 UTC
(21 minutes ago)
Valid To Dec-19 @ 02:00 UTC
(in 2 hours)
Dec-19 @ 00:00 - Dec-19 @ 02:00
Wind Visibility
150° at 8 knots 6,003 meters
Clouds
  • Scattered at 600' AGL
  • Broken at 2,000' AGL
Probability 40% Probable Dec-19 @ 00:00 - Dec-19 @ 02:00
Clouds
  • Broken at 600' AGL
Conditions
  • Light Snow grains
  • Mist